sensor_id;sensor_type;location;lat;lon;timestamp;pressure;altitude;pressure_sealevel;temperature;humidity
64827;BME280;51265;53.972;12.286;2022-11-04T00:01:44;99579.69;;;6.89;100.00
64827;BME280;51265;53.972;12.286;2022-11-04T00:04:11;99577.84;;;6.84;100.00
64827;BME280;51265;53.972;12.286;2022-11-04T00:06:39;99582.53;;;6.84;100.00
64827;BME280;51265;53.972;12.286;2022-11-04T00:09:08;99579.47;;;6.85;100.00
64827;BME280;51265;53.972;12.286;2022-11-04T00:11:35;99591.44;;;6.89;100.00
64827;BME280;51265;53.972;12.286;2022-11-04T00:14:21;99581.72;;;6.83;100.00
64827;BME280;51265;53.972;12.286;2022-11-04T00:16:48;99569.66;;;6.84;100.00
64827;BME280;51265;53.972;12.286;2022-11-04T00:19:33;99569.56;;;6.89;100.00
64827;BME280;51265;53.972;12.286;2022-11-04T00:22:18;99563.00;;;6.90;100.00
64827;BME280;51265;53.972;12.286;2022-11-04T00:25:04;99575.56;;;6.91;100.00
64827;BME280;51265;53.972;12.286;2022-11-04T00:27:50;99571.19;;;6.90;100.00
64827;BME280;51265;53.972;12.286;2022-11-04T00:30:35;99563.50;;;6.92;100.00
64827;BME280;51265;53.972;12.286;2022-11-04T00:33:02;99576.06;;;6.93;100.00
64827;BME280;51265;53.972;12.286;2022-11-04T00:35:48;99562.31;;;6.98;100.00
64827;BME280;51265;53.972;12.286;2022-11-04T00:38:16;99556.28;;;6.96;100.00
64827;BME280;51265;53.972;12.286;2022-11-04T00:40:43;99559.56;;;6.98;100.00
64827;BME280;51265;53.972;12.286;2022-11-04T00:43:10;99560.06;;;7.01;100.00
64827;BME280;51265;53.972;12.286;2022-11-04T00:45:36;99547.19;;;7.01;100.00
64827;BME280;51265;53.972;12.286;2022-11-04T00:48:03;99548.09;;;6.96;100.00
64827;BME280;51265;53.972;12.286;2022-11-04T00:50:30;99552.38;;;7.03;100.00
64827;BME280;51265;53.972;12.286;2022-11-04T00:53:00;99553.78;;;7.00;100.00
64827;BME280;51265;53.972;12.286;2022-11-04T00:55:27;99553.56;;;6.96;100.00
64827;BME280;51265;53.972;12.286;2022-11-04T00:57:57;99551.94;;;6.95;100.00
64827;BME280;51265;53.972;12.286;2022-11-04T01:00:23;99545.25;;;7.02;100.00
64827;BME280;51265;53.972;12.286;2022-11-04T01:02:50;99535.94;;;7.03;100.00
64827;BME280;51265;53.972;12.286;2022-11-04T01:05:17;99529.84;;;7.06;100.00
64827;BME280;51265;53.972;12.286;2022-11-04T01:07:43;99529.34;;;7.04;100.00
64827;BME280;51265;53.972;12.286;2022-11-04T01:10:10;99533.50;;;7.01;100.00
64827;BME280;51265;53.972;12.286;2022-11-04T01:12:37;99532.09;;;7.04;100.00
64827;BME280;51265;53.972;12.286;2022-11-04T01:15:04;99511.81;;;7.05;100.00
64827;BME280;51265;53.972;12.286;2022-11-04T01:17:31;99507.56;;;6.98;100.00
64827;BME280;51265;53.972;12.286;2022-11-04T01:19:57;99505.91;;;6.97;100.00
64827;BME280;51265;53.972;12.286;2022-11-04T01:22:24;99508.16;;;6.95;100.00
64827;BME280;51265;53.972;12.286;2022-11-04T01:24:50;99496.06;;;6.96;100.00
64827;BME280;51265;53.972;12.286;2022-11-04T01:27:17;99497.19;;;6.95;100.00
64827;BME280;51265;53.972;12.286;2022-11-04T01:29:43;99498.81;;;6.96;100.00
64827;BME280;51265;53.972;12.286;2022-11-04T01:32:11;99499.84;;;7.01;100.00
64827;BME280;51265;53.972;12.286;2022-11-04T01:34:37;99487.16;;;7.05;100.00
64827;BME280;51265;53.972;12.286;2022-11-04T01:37:04;99491.13;;;6.98;100.00
64827;BME280;51265;53.972;12.286;2022-11-04T01:39:30;99497.00;;;7.06;100.00
64827;BME280;51265;53.972;12.286;2022-11-04T01:41:57;99504.72;;;7.04;100.00
64827;BME280;51265;53.972;12.286;2022-11-04T01:47:39;99475.72;;;7.03;100.00
64827;BME280;51265;53.972;12.286;2022-11-04T01:50:07;99481.69;;;7.05;100.00
64827;BME280;51265;53.972;12.286;2022-11-04T01:55:10;99473.78;;;7.03;100.00
64827;BME280;51265;53.972;12.286;2022-11-04T01:57:41;99477.53;;;7.07;100.00
64827;BME280;51265;53.972;12.286;2022-11-04T02:00:11;99468.41;;;7.12;100.00
64827;BME280;51265;53.972;12.286;2022-11-04T02:02:48;99464.13;;;7.06;100.00
64827;BME280;51265;53.972;12.286;2022-11-04T02:05:15;99465.56;;;7.03;100.00
64827;BME280;51265;53.972;12.286;2022-11-04T02:07:41;99446.69;;;7.02;100.00
64827;BME280;51265;53.972;12.286;2022-11-04T02:10:08;99446.47;;;6.98;100.00
64827;BME280;51265;53.972;12.286;2022-11-04T02:12:34;99459.09;;;6.99;100.00
64827;BME280;51265;53.972;12.286;2022-11-04T02:15:44;99460.69;;;7.00;100.00
64827;BME280;51265;53.972;12.286;2022-11-04T02:18:16;99466.16;;;7.00;100.00
64827;BME280;51265;53.972;12.286;2022-11-04T02:32:14;99434.34;;;6.90;100.00
64827;BME280;51265;53.972;12.286;2022-11-04T02:35:10;99442.25;;;6.92;100.00
64827;BME280;51265;53.972;12.286;2022-11-04T02:37:53;99446.81;;;6.96;100.00
64827;BME280;51265;53.972;12.286;2022-11-04T02:45:47;99445.69;;;6.97;100.00
64827;BME280;51265;53.972;12.286;2022-11-04T02:51:18;99442.25;;;7.06;100.00
64827;BME280;51265;53.972;12.286;2022-11-04T02:56:36;99451.19;;;7.11;100.00
64827;BME280;51265;53.972;12.286;2022-11-04T02:59:12;99443.25;;;7.10;100.00
64827;BME280;51265;53.972;12.286;2022-11-04T03:01:41;99440.44;;;7.15;100.00
64827;BME280;51265;53.972;12.286;2022-11-04T03:04:14;99440.44;;;7.15;100.00
64827;BME280;51265;53.972;12.286;2022-11-04T03:06:44;99434.97;;;7.15;100.00
64827;BME280;51265;53.972;12.286;2022-11-04T03:09:14;99440.31;;;7.20;100.00
64827;BME280;51265;53.972;12.286;2022-11-04T03:11:44;99439.19;;;7.21;100.00
64827;BME280;51265;53.972;12.286;2022-11-04T03:14:19;99442.25;;;7.19;100.00
64827;BME280;51265;53.972;12.286;2022-11-04T03:17:02;99450.25;;;7.16;100.00
64827;BME280;51265;53.972;12.286;2022-11-04T03:19:58;99441.41;;;7.19;100.00
64827;BME280;51265;53.972;12.286;2022-11-04T03:22:28;99443.06;;;7.20;100.00
64827;BME280;51265;53.972;12.286;2022-11-04T03:24:55;99434.13;;;7.28;100.00
64827;BME280;51265;53.972;12.286;2022-11-04T03:35:06;99427.22;;;7.31;100.00
64827;BME280;51265;53.972;12.286;2022-11-04T03:37:33;99441.22;;;7.29;100.00
64827;BME280;51265;53.972;12.286;2022-11-04T03:40:00;99438.16;;;7.31;100.00
64827;BME280;51265;53.972;12.286;2022-11-04T03:42:29;99442.84;;;7.30;100.00
64827;BME280;51265;53.972;12.286;2022-11-04T03:44:57;99435.16;;;7.32;100.00
64827;BME280;51265;53.972;12.286;2022-11-04T03:47:26;99441.72;;;7.31;100.00
64827;BME280;51265;53.972;12.286;2022-11-04T03:49:58;99436.75;;;7.33;100.00
64827;BME280;51265;53.972;12.286;2022-11-04T03:52:25;99442.25;;;7.33;100.00
64827;BME280;51265;53.972;12.286;2022-11-04T03:54:52;99431.28;;;7.33;100.00
64827;BME280;51265;53.972;12.286;2022-11-04T04:00:07;99433.41;;;7.36;100.00
64827;BME280;51265;53.972;12.286;2022-11-04T04:06:08;99438.78;;;7.41;100.00
64827;BME280;51265;53.972;12.286;2022-11-04T04:13:18;99425.56;;;7.43;100.00
64827;BME280;51265;53.972;12.286;2022-11-04T04:15:49;99438.78;;;7.41;100.00
64827;BME280;51265;53.972;12.286;2022-11-04T04:18:25;99436.53;;;7.43;100.00
64827;BME280;51265;53.972;12.286;2022-11-04T04:20:55;99440.41;;;7.42;100.00
64827;BME280;51265;53.972;12.286;2022-11-04T04:23:26;99438.16;;;7.44;100.00
64827;BME280;51265;53.972;12.286;2022-11-04T04:26:13;99438.34;;;7.48;100.00
64827;BME280;51265;53.972;12.286;2022-11-04T04:29:00;99431.44;;;7.51;100.00
64827;BME280;51265;53.972;12.286;2022-11-04T04:31:29;99421.81;;;7.53;100.00
64827;BME280;51265;53.972;12.286;2022-11-04T04:34:17;99418.88;;;7.49;100.00
64827;BME280;51265;53.972;12.286;2022-11-04T04:36:59;99426.78;;;7.51;100.00
64827;BME280;51265;53.972;12.286;2022-11-04T04:39:31;99430.31;;;7.52;100.00
64827;BME280;51265;53.972;12.286;2022-11-04T04:42:17;99429.84;;;7.49;100.00
64827;BME280;51265;53.972;12.286;2022-11-04T04:45:04;99433.38;;;7.50;100.00
64827;BME280;51265;53.972;12.286;2022-11-04T04:47:35;99436.94;;;7.51;100.00
64827;BME280;51265;53.972;12.286;2022-11-04T04:50:02;99437.13;;;7.54;100.00
64827;BME280;51265;53.972;12.286;2022-11-04T04:52:32;99432.56;;;7.49;100.00
64827;BME280;51265;53.972;12.286;2022-11-04T04:54:59;99442.53;;;7.45;100.00
64827;BME280;51265;53.972;12.286;2022-11-04T04:57:25;99443.81;;;7.48;100.00
64827;BME280;51265;53.972;12.286;2022-11-04T04:59:51;99459.66;;;7.51;100.00
64827;BME280;51265;53.972;12.286;2022-11-04T05:02:17;99457.72;;;7.52;100.00
64827;BME280;51265;53.972;12.286;2022-11-04T05:04:43;99460.25;;;7.48;100.00
64827;BME280;51265;53.972;12.286;2022-11-04T05:07:09;99464.94;;;7.47;100.00
64827;BME280;51265;53.972;12.286;2022-11-04T05:09:35;99457.84;;;7.46;100.00
64827;BME280;51265;53.972;12.286;2022-11-04T05:12:01;99475.09;;;7.47;100.00
64827;BME280;51265;53.972;12.286;2022-11-04T05:14:28;99471.13;;;7.39;100.00
64827;BME280;51265;53.972;12.286;2022-11-04T05:16:54;99478.25;;;7.27;100.00
64827;BME280;51265;53.972;12.286;2022-11-04T05:19:20;99486.66;;;7.30;100.00
64827;BME280;51265;53.972;12.286;2022-11-04T05:21:46;99491.13;;;7.26;100.00
64827;BME280;51265;53.972;12.286;2022-11-04T05:24:12;99496.00;;;7.29;100.00
64827;BME280;51265;53.972;12.286;2022-11-04T05:26:38;99505.34;;;7.28;100.00
64827;BME280;51265;53.972;12.286;2022-11-04T05:29:04;99502.06;;;7.26;100.00
64827;BME280;51265;53.972;12.286;2022-11-04T05:31:31;99512.81;;;7.22;100.00
64827;BME280;51265;53.972;12.286;2022-11-04T05:33:57;99520.22;;;7.22;100.00
64827;BME280;51265;53.972;12.286;2022-11-04T05:36:24;99522.75;;;7.18;100.00
64827;BME280;51265;53.972;12.286;2022-11-04T05:38:52;99521.75;;;7.14;100.00
64827;BME280;51265;53.972;12.286;2022-11-04T05:41:20;99527.53;;;7.13;100.00
64827;BME280;51265;53.972;12.286;2022-11-04T05:43:54;99528.94;;;7.10;100.00
64827;BME280;51265;53.972;12.286;2022-11-04T05:46:21;99534.13;;;7.12;100.00
64827;BME280;51265;53.972;12.286;2022-11-04T05:48:47;99536.88;;;7.12;100.00
64827;BME280;51265;53.972;12.286;2022-11-04T05:51:16;99548.94;;;7.11;100.00
64827;BME280;51265;53.972;12.286;2022-11-04T05:53:43;99557.66;;;7.13;100.00
64827;BME280;51265;53.972;12.286;2022-11-04T05:56:09;99565.56;;;7.14;100.00
64827;BME280;51265;53.972;12.286;2022-11-04T05:58:35;99569.03;;;7.20;100.00
64827;BME280;51265;53.972;12.286;2022-11-04T06:03:50;99584.03;;;7.22;100.00
64827;BME280;51265;53.972;12.286;2022-11-04T06:06:17;99598.53;;;7.23;100.00
64827;BME280;51265;53.972;12.286;2022-11-04T06:08:43;99599.97;;;7.20;100.00
64827;BME280;51265;53.972;12.286;2022-11-04T06:11:09;99611.13;;;7.24;100.00
64827;BME280;51265;53.972;12.286;2022-11-04T06:13:34;99615.50;;;7.25;100.00
64827;BME280;51265;53.972;12.286;2022-11-04T06:16:00;99629.69;;;7.27;100.00
64827;BME280;51265;53.972;12.286;2022-11-04T06:18:26;99632.94;;;7.29;100.00
64827;BME280;51265;53.972;12.286;2022-11-04T06:23:38;99641.66;;;7.31;100.00
64827;BME280;51265;53.972;12.286;2022-11-04T06:26:05;99636.19;;;7.31;100.00
64827;BME280;51265;53.972;12.286;2022-11-04T06:28:31;99635.50;;;7.39;100.00
64827;BME280;51265;53.972;12.286;2022-11-04T06:30:58;99647.88;;;7.37;100.00
64827;BME280;51265;53.972;12.286;2022-11-04T06:33:25;99653.56;;;7.40;100.00
64827;BME280;51265;53.972;12.286;2022-11-04T06:35:51;99660.16;;;7.39;100.00
64827;BME280;51265;53.972;12.286;2022-11-04T06:38:17;99647.56;;;7.38;100.00
64827;BME280;51265;53.972;12.286;2022-11-04T06:40:43;99660.78;;;7.36;100.00
64827;BME280;51265;53.972;12.286;2022-11-04T06:43:12;99655.28;;;7.36;100.00
64827;BME280;51265;53.972;12.286;2022-11-04T06:45:38;99667.88;;;7.37;100.00
64827;BME280;51265;53.972;12.286;2022-11-04T06:48:05;99673.56;;;7.41;100.00
64827;BME280;51265;53.972;12.286;2022-11-04T06:50:31;99685.31;;;7.41;100.00
64827;BME280;51265;53.972;12.286;2022-11-04T06:52:56;99678.22;;;7.40;100.00
64827;BME280;51265;53.972;12.286;2022-11-04T06:55:22;99679.84;;;7.41;100.00
64827;BME280;51265;53.972;12.286;2022-11-04T06:57:48;99687.75;;;7.43;100.00
64827;BME280;51265;53.972;12.286;2022-11-04T07:00:15;99697.31;;;7.45;100.00
64827;BME280;51265;53.972;12.286;2022-11-04T07:02:41;99695.38;;;7.46;100.00
64827;BME280;51265;53.972;12.286;2022-11-04T07:05:07;99695.06;;;7.47;100.00
64827;BME280;51265;53.972;12.286;2022-11-04T07:07:33;99716.41;;;7.51;100.00
64827;BME280;51265;53.972;12.286;2022-11-04T07:09:59;99725.16;;;7.53;100.00
64827;BME280;51265;53.972;12.286;2022-11-04T07:12:25;99728.97;;;7.52;100.00
64827;BME280;51265;53.972;12.286;2022-11-04T07:14:51;99731.13;;;7.55;100.00
64827;BME280;51265;53.972;12.286;2022-11-04T07:17:17;99738.31;;;7.51;100.00
64827;BME280;51265;53.972;12.286;2022-11-04T07:19:43;99745.41;;;7.52;100.00
64827;BME280;51265;53.972;12.286;2022-11-04T07:22:09;99748.69;;;7.54;100.00
64827;BME280;51265;53.972;12.286;2022-11-04T07:24:35;99747.88;;;7.53;100.00
64827;BME280;51265;53.972;12.286;2022-11-04T07:27:01;99748.69;;;7.54;100.00
64827;BME280;51265;53.972;12.286;2022-11-04T07:29:27;99751.91;;;7.56;100.00
64827;BME280;51265;53.972;12.286;2022-11-04T07:31:53;99751.91;;;7.56;100.00
64827;BME280;51265;53.972;12.286;2022-11-04T07:34:19;99765.56;;;7.61;100.00
64827;BME280;51265;53.972;12.286;2022-11-04T07:36:45;99770.41;;;7.64;100.00
64827;BME280;51265;53.972;12.286;2022-11-04T07:39:11;99765.75;;;7.64;100.00
64827;BME280;51265;53.972;12.286;2022-11-04T07:41:37;99771.75;;;7.66;100.00
64827;BME280;51265;53.972;12.286;2022-11-04T07:44:03;99770.53;;;7.72;100.00
64827;BME280;51265;53.972;12.286;2022-11-04T07:46:31;99775.13;;;7.77;100.00
64827;BME280;51265;53.972;12.286;2022-11-04T07:48:58;99789.34;;;7.79;100.00
64827;BME280;51265;53.972;12.286;2022-11-04T07:51:25;99787.13;;;7.81;100.00
64827;BME280;51265;53.972;12.286;2022-11-04T07:53:51;99788.13;;;7.85;100.00
64827;BME280;51265;53.972;12.286;2022-11-04T07:56:17;99797.91;;;7.91;100.00
64827;BME280;51265;53.972;12.286;2022-11-04T07:58:43;99798.94;;;7.95;100.00
64827;BME280;51265;53.972;12.286;2022-11-04T08:01:16;99808.47;;;7.98;100.00
64827;BME280;51265;53.972;12.286;2022-11-04T08:03:42;99815.28;;;8.01;100.00
64827;BME280;51265;53.972;12.286;2022-11-04T08:06:13;99818.56;;;8.03;100.00
64827;BME280;51265;53.972;12.286;2022-11-04T08:08:39;99817.44;;;8.04;100.00
64827;BME280;51265;53.972;12.286;2022-11-04T08:11:07;99830.53;;;8.07;100.00
64827;BME280;51265;53.972;12.286;2022-11-04T08:13:35;99829.66;;;8.11;100.00
64827;BME280;51265;53.972;12.286;2022-11-04T08:16:04;99833.09;;;8.17;100.00
64827;BME280;51265;53.972;12.286;2022-11-04T08:18:31;99844.09;;;8.17;100.00
64827;BME280;51265;53.972;12.286;2022-11-04T08:20:58;99852.31;;;8.17;100.00
64827;BME280;51265;53.972;12.286;2022-11-04T08:23:24;99849.47;;;8.22;100.00
64827;BME280;51265;53.972;12.286;2022-11-04T08:25:51;99846.13;;;8.25;100.00
64827;BME280;51265;53.972;12.286;2022-11-04T08:28:29;99849.00;;;8.34;100.00
64827;BME280;51265;53.972;12.286;2022-11-04T08:30:58;99840.44;;;8.35;100.00
64827;BME280;51265;53.972;12.286;2022-11-04T08:33:26;99846.97;;;8.39;100.00
64827;BME280;51265;53.972;12.286;2022-11-04T08:35:55;99852.91;;;8.46;100.00
64827;BME280;51265;53.972;12.286;2022-11-04T08:38:23;99854.34;;;8.58;100.00
64827;BME280;51265;53.972;12.286;2022-11-04T08:40:50;99856.88;;;8.68;100.00
64827;BME280;51265;53.972;12.286;2022-11-04T08:43:16;99855.03;;;8.77;100.00
64827;BME280;51265;53.972;12.286;2022-11-04T08:45:44;99857.06;;;8.85;100.00
64827;BME280;51265;53.972;12.286;2022-11-04T08:48:12;99856.78;;;8.87;100.00
64827;BME280;51265;53.972;12.286;2022-11-04T08:50:38;99855.44;;;8.84;100.00
64827;BME280;51265;53.972;12.286;2022-11-04T08:53:05;99868.16;;;8.94;100.00
64827;BME280;51265;53.972;12.286;2022-11-04T08:55:32;99863.47;;;8.94;100.00
64827;BME280;51265;53.972;12.286;2022-11-04T08:57:59;99877.50;;;8.93;100.00
64827;BME280;51265;53.972;12.286;2022-11-04T09:00:25;99873.84;;;8.97;100.00
64827;BME280;51265;53.972;12.286;2022-11-04T09:02:51;99878.41;;;9.02;100.00
64827;BME280;51265;53.972;12.286;2022-11-04T09:05:17;99876.88;;;9.10;100.00
64827;BME280;51265;53.972;12.286;2022-11-04T09:07:44;99870.34;;;9.19;100.00
64827;BME280;51265;53.972;12.286;2022-11-04T09:10:10;99868.53;;;9.29;100.00
64827;BME280;51265;53.972;12.286;2022-11-04T09:12:36;99881.94;;;9.30;100.00
64827;BME280;51265;53.972;12.286;2022-11-04T09:15:03;99882.97;;;9.34;100.00
64827;BME280;51265;53.972;12.286;2022-11-04T09:17:30;99882.34;;;9.37;100.00
64827;BME280;51265;53.972;12.286;2022-11-04T09:19:56;99882.34;;;9.37;100.00
64827;BME280;51265;53.972;12.286;2022-11-04T09:22:22;99886.59;;;9.43;100.00
64827;BME280;51265;53.972;12.286;2022-11-04T09:24:49;99884.38;;;9.45;100.00
64827;BME280;51265;53.972;12.286;2022-11-04T09:27:15;99873.75;;;9.53;100.00
64827;BME280;51265;53.972;12.286;2022-11-04T09:29:41;99873.94;;;9.56;100.00
64827;BME280;51265;53.972;12.286;2022-11-04T09:32:07;99872.06;;;9.65;100.00
64827;BME280;51265;53.972;12.286;2022-11-04T09:34:34;99860.38;;;9.82;100.00
64827;BME280;51265;53.972;12.286;2022-11-04T09:37:00;99857.78;;;10.00;100.00
64827;BME280;51265;53.972;12.286;2022-11-04T09:39:26;99850.88;;;10.11;100.00
64827;BME280;51265;53.972;12.286;2022-11-04T09:42:04;99857.16;;;10.25;100.00
64827;BME280;51265;53.972;12.286;2022-11-04T09:44:54;99841.66;;;10.29;100.00
64827;BME280;51265;53.972;12.286;2022-11-04T09:47:24;99827.13;;;10.37;100.00
64827;BME280;51265;53.972;12.286;2022-11-04T09:49:53;99816.44;;;10.44;100.00
64827;BME280;51265;53.972;12.286;2022-11-04T09:52:23;99811.63;;;10.50;100.00
64827;BME280;51265;53.972;12.286;2022-11-04T09:55:09;99794.66;;;10.65;100.00
64827;BME280;51265;53.972;12.286;2022-11-04T09:57:37;99783.19;;;10.72;100.00
64827;BME280;51265;53.972;12.286;2022-11-04T10:00:04;99763.53;;;10.65;100.00
64827;BME280;51265;53.972;12.286;2022-11-04T10:05:54;99736.19;;;10.77;100.00
64827;BME280;51265;53.972;12.286;2022-11-04T10:08:50;99734.94;;;10.83;100.00
64827;BME280;51265;53.972;12.286;2022-11-04T10:11:21;99721.31;;;10.87;100.00
64827;BME280;51265;53.972;12.286;2022-11-04T10:19:03;99700.22;;;10.91;100.00
64827;BME280;51265;53.972;12.286;2022-11-04T10:21:57;99694.25;;;10.89;100.00
64827;BME280;51265;53.972;12.286;2022-11-04T10:24:30;99682.44;;;10.88;100.00
64827;BME280;51265;53.972;12.286;2022-11-04T10:27:11;99678.19;;;10.82;100.00
64827;BME280;51265;53.972;12.286;2022-11-04T10:29:44;99679.34;;;10.81;100.00
64827;BME280;51265;53.972;12.286;2022-11-04T10:32:16;99689.38;;;10.77;100.00
64827;BME280;51265;53.972;12.286;2022-11-04T10:34:56;99686.00;;;10.97;100.00
64827;BME280;51265;53.972;12.286;2022-11-04T10:37:25;99678.06;;;10.87;100.00
64827;BME280;51265;53.972;12.286;2022-11-04T10:39:58;99678.88;;;10.79;100.00
64827;BME280;51265;53.972;12.286;2022-11-04T10:42:25;99676.91;;;10.71;100.00
64827;BME280;51265;53.972;12.286;2022-11-04T10:44:51;99661.19;;;10.63;100.00
64827;BME280;51265;53.972;12.286;2022-11-04T10:47:46;99671.53;;;10.57;100.00
64827;BME280;51265;53.972;12.286;2022-11-04T10:52:43;99665.03;;;10.44;100.00
64827;BME280;51265;53.972;12.286;2022-11-04T10:55:37;99664.56;;;10.42;100.00
64827;BME280;51265;53.972;12.286;2022-11-04T10:58:13;99653.13;;;10.18;100.00
64827;BME280;51265;53.972;12.286;2022-11-04T11:00:40;99657.88;;;10.26;100.00
64827;BME280;51265;53.972;12.286;2022-11-04T11:03:23;99667.13;;;10.30;100.00
64827;BME280;51265;53.972;12.286;2022-11-04T11:05:51;99669.53;;;10.32;100.00
64827;BME280;51265;53.972;12.286;2022-11-04T11:08:31;99662.84;;;10.24;100.00
64827;BME280;51265;53.972;12.286;2022-11-04T11:10:58;99676.91;;;10.54;100.00
64827;BME280;51265;53.972;12.286;2022-11-04T11:13:34;99679.16;;;10.69;100.00
64827;BME280;51265;53.972;12.286;2022-11-04T11:16:18;99679.50;;;10.59;100.00
64827;BME280;51265;53.972;12.286;2022-11-04T11:19:07;99679.81;;;10.66;100.00
64827;BME280;51265;53.972;12.286;2022-11-04T11:21:48;99679.94;;;10.52;100.00
64827;BME280;51265;53.972;12.286;2022-11-04T11:26:44;99693.41;;;10.54;100.00
64827;BME280;51265;53.972;12.286;2022-11-04T11:29:33;99698.72;;;10.41;100.00
64827;BME280;51265;53.972;12.286;2022-11-04T11:32:31;99701.00;;;10.48;100.00
64827;BME280;51265;53.972;12.286;2022-11-04T11:34:58;99708.63;;;10.60;100.00
64827;BME280;51265;53.972;12.286;2022-11-04T11:37:28;99707.38;;;10.66;100.00
64827;BME280;51265;53.972;12.286;2022-11-04T11:39:57;99710.13;;;10.66;100.00
64827;BME280;51265;53.972;12.286;2022-11-04T11:42:25;99718.03;;;10.59;100.00
64827;BME280;51265;53.972;12.286;2022-11-04T11:44:56;99724.53;;;10.63;100.00
64827;BME280;51265;53.972;12.286;2022-11-04T11:52:43;99721.78;;;10.63;100.00
64827;BME280;51265;53.972;12.286;2022-11-04T11:55:27;99725.81;;;10.74;100.00
64827;BME280;51265;53.972;12.286;2022-11-04T11:58:12;99725.03;;;10.82;100.00
64827;BME280;51265;53.972;12.286;2022-11-04T12:00:47;99734.59;;;10.93;100.00
64827;BME280;51265;53.972;12.286;2022-11-04T12:06:05;99719.56;;;11.00;100.00
64827;BME280;51265;53.972;12.286;2022-11-04T12:29:05;99726.00;;;10.86;100.00
64827;BME280;51265;53.972;12.286;2022-11-04T12:31:58;99730.88;;;10.98;100.00
64827;BME280;51265;53.972;12.286;2022-11-04T12:35:12;99717.72;;;10.86;100.00
64827;BME280;51265;53.972;12.286;2022-11-04T12:38:15;99722.75;;;10.76;100.00
64827;BME280;51265;53.972;12.286;2022-11-04T12:41:27;99709.75;;;10.50;100.00
64827;BME280;51265;53.972;12.286;2022-11-04T12:46:42;99724.63;;;10.49;100.00
64827;BME280;51265;53.972;12.286;2022-11-04T12:57:12;99738.44;;;10.58;100.00
64827;BME280;51265;53.972;12.286;2022-11-04T12:59:45;99726.72;;;10.43;100.00
64827;BME280;51265;53.972;12.286;2022-11-04T13:05:02;99733.91;;;10.22;100.00
64827;BME280;51265;53.972;12.286;2022-11-04T13:07:40;99724.97;;;10.08;100.00
64827;BME280;51265;53.972;12.286;2022-11-04T13:10:22;99738.06;;;10.11;100.00
64827;BME280;51265;53.972;12.286;2022-11-04T13:12:51;99738.53;;;10.04;100.00
64827;BME280;51265;53.972;12.286;2022-11-04T13:15:21;99749.59;;;10.13;100.00
64827;BME280;51265;53.972;12.286;2022-11-04T13:17:52;99754.31;;;10.21;100.00
64827;BME280;51265;53.972;12.286;2022-11-04T13:20:39;99754.47;;;10.16;100.00
64827;BME280;51265;53.972;12.286;2022-11-04T13:23:16;99771.69;;;10.30;100.00
64827;BME280;51265;53.972;12.286;2022-11-04T13:25:46;99766.34;;;10.25;100.00
64827;BME280;51265;53.972;12.286;2022-11-04T13:28:17;99763.38;;;10.21;100.00
64827;BME280;51265;53.972;12.286;2022-11-04T13:31:04;99776.81;;;10.23;100.00
64827;BME280;51265;53.972;12.286;2022-11-04T13:36:46;99765.41;;;10.07;100.00
64827;BME280;51265;53.972;12.286;2022-11-04T13:44:28;99792.00;;;10.12;100.00
64827;BME280;51265;53.972;12.286;2022-11-04T13:46:57;99789.41;;;10.15;100.00
64827;BME280;51265;53.972;12.286;2022-11-04T13:49:28;99797.50;;;10.12;100.00
64827;BME280;51265;53.972;12.286;2022-11-04T13:57:21;99805.16;;;9.92;100.00
64827;BME280;51265;53.972;12.286;2022-11-04T14:02:45;99803.88;;;9.98;100.00
64827;BME280;51265;53.972;12.286;2022-11-04T14:18:39;99829.53;;;9.63;100.00
64827;BME280;51265;53.972;12.286;2022-11-04T14:21:10;99833.91;;;9.64;100.00
64827;BME280;51265;53.972;12.286;2022-11-04T14:23:42;99832.41;;;9.58;100.00
64827;BME280;51265;53.972;12.286;2022-11-04T14:26:11;99828.75;;;9.48;100.00
64827;BME280;51265;53.972;12.286;2022-11-04T14:28:43;99837.84;;;9.49;100.00
64827;BME280;51265;53.972;12.286;2022-11-04T14:31:12;99842.00;;;9.46;100.00
64827;BME280;51265;53.972;12.286;2022-11-04T14:36:26;99848.13;;;9.43;100.00
64827;BME280;51265;53.972;12.286;2022-11-04T14:39:20;99850.56;;;9.45;100.00
64827;BME280;51265;53.972;12.286;2022-11-04T14:41:51;99850.88;;;9.43;100.00
64827;BME280;51265;53.972;12.286;2022-11-04T14:47:27;99847.72;;;9.36;100.00
64827;BME280;51265;53.972;12.286;2022-11-04T14:52:35;99844.47;;;9.34;100.00
64827;BME280;51265;53.972;12.286;2022-11-04T15:02:58;99841.66;;;9.26;100.00
64827;BME280;51265;53.972;12.286;2022-11-04T15:05:27;99848.56;;;9.23;100.00
64827;BME280;51265;53.972;12.286;2022-11-04T15:07:54;99848.56;;;9.23;100.00
64827;BME280;51265;53.972;12.286;2022-11-04T15:10:26;99847.91;;;9.04;100.00
64827;BME280;51265;53.972;12.286;2022-11-04T15:13:00;99856.97;;;9.04;100.00
64827;BME280;51265;53.972;12.286;2022-11-04T15:15:35;99854.63;;;8.97;100.00
64827;BME280;51265;53.972;12.286;2022-11-04T15:18:08;99862.38;;;8.95;100.00
64827;BME280;51265;53.972;12.286;2022-11-04T15:23:18;99880.16;;;8.84;100.00
64827;BME280;51265;53.972;12.286;2022-11-04T15:25:47;99900.94;;;8.90;100.00
64827;BME280;51265;53.972;12.286;2022-11-04T15:28:17;99898.66;;;8.92;100.00
64827;BME280;51265;53.972;12.286;2022-11-04T15:30:56;99903.66;;;8.90;100.00
64827;BME280;51265;53.972;12.286;2022-11-04T15:33:23;99911.38;;;8.88;100.00
64827;BME280;51265;53.972;12.286;2022-11-04T15:35:50;99914.94;;;8.89;100.00
64827;BME280;51265;53.972;12.286;2022-11-04T15:38:17;99913.91;;;8.85;100.00
64827;BME280;51265;53.972;12.286;2022-11-04T15:40:43;99929.59;;;8.84;100.00
64827;BME280;51265;53.972;12.286;2022-11-04T15:43:10;99935.88;;;8.85;100.00
64827;BME280;51265;53.972;12.286;2022-11-04T15:48:31;99934.66;;;8.77;100.00